Flight Track Log - Related Links

Times and Time Zones

All times are in EDT time to prevent confusion due to time zone crossing. See the N1926A flight status page for this flight to view local times or setup timezone preferences in your user account.

Time Position Orientation Groundspeed Altitude Reporting Facility
EDT Latitude Longitude Course Direction KTS MPH feet Rate Location/Type
Mon 05:59:57 AM 32.5786 -85.9936 310° West 260 299 5,200  Level Atlanta Center
Mon 06:00:57 AM 32.6092 -86.0361 310° West 208 239 7,300 2,050 Climbing Atlanta Center
Mon 06:01:57 AM 32.6378 -86.0786 309° West 181 208 9,300 1,900 Climbing Atlanta Center
Mon 06:02:57 AM 32.6600 -86.1261 299° West 173 199 11,100 1,800 Climbing Atlanta Center
Mon 06:03:57 AM 32.6842 -86.1736 301° West 168 193 12,900 1,700 Climbing Atlanta Center
Mon 06:04:57 AM 32.7083 -86.2261 299° West 168 193 14,500 1,600 Climbing Atlanta Center
Mon 06:05:57 AM 32.7303 -86.2783 297° West 168 193 16,100 1,500 Climbing Atlanta Center
Mon 06:06:57 AM 32.7564 -86.3333 299° West 181 208 17,500 1,400 Climbing Atlanta Center
Mon 06:07:57 AM 32.7783 -86.3883 295° West 186 214 18,900 1,300 Climbing Atlanta Center
Mon 06:08:57 AM 32.8044 -86.4433 299° West 186 214 20,100 1,250 Climbing Atlanta Center
Mon 06:09:57 AM 32.8328 -86.4911 305° West 181 208 21,400 1,200 Climbing Atlanta Center
Mon 06:10:57 AM 32.8608 -86.5464 301° West 181 208 22,500 1,050 Climbing Atlanta Center
Mon 06:11:57 AM 32.8867 -86.6014 299° West 181 208 23,500 1,050 Climbing Atlanta Center
Mon 06:12:57 AM 32.9108 -86.6542 299° West 181 208 24,600 1,000 Climbing Atlanta Center
Mon 06:13:57 AM 32.9369 -86.7019 303° West 181 208 25,500 700 Climbing Atlanta Center
Mon 06:14:57 AM 32.9606 -86.7622 295° West 181 208 26,000 250 Climbing Atlanta Center
Mon 06:15:57 AM 32.9906 -86.8225 301° West 194 223 26,000  Level Atlanta Center
Mon 06:16:57 AM 33.0244 -86.8881 302° West 213 245 26,000  Level Atlanta Center
Mon 06:17:57 AM 33.0625 -86.9536 305° West 236 272 26,000  Level Atlanta Center
Mon 06:18:57 AM 33.0986 -87.0244 301° West 241 277 26,000  Level Atlanta Center
Mon 06:19:57 AM 33.1383 -87.1000 302° West 246 283 26,000  Level Atlanta Center
Mon 06:21:39 AM 33.1936 -87.2119 301° West 255 293 26,000  Level Memphis Center
Mon 06:22:39 AM 33.2289 -87.2853 300° West 250 288 26,000  Level Memphis Center
Mon 06:23:39 AM 33.2619 -87.3561 299° West 244 281 26,000  Level Memphis Center
Mon 06:24:39 AM 33.2969 -87.4294 300° West 244 281 26,000  Level Memphis Center
Mon 06:25:39 AM 33.3342 -87.5003 302° West 249 287 26,000  Level Memphis Center
Mon 06:26:39 AM 33.3692 -87.5739 300° West 249 287 26,000  Level Memphis Center
Mon 06:27:39 AM 33.4042 -87.6450 301° West 249 287 26,000  Level Memphis Center
Mon 06:28:39 AM 33.4392 -87.7136 301° West 249 287 26,000  Level Memphis Center
Mon 06:29:39 AM 33.4739 -87.7872 300° West 249 287 26,000  Level Memphis Center
Mon 06:30:39 AM 33.5089 -87.8583 301° West 249 287 26,000  Level Memphis Center
Mon 06:31:39 AM 33.5436 -87.9297 300° West 249 287 26,000  Level Memphis Center
Mon 06:32:39 AM 33.5783 -88.0033 300° West 249 287 26,000  Level Memphis Center
Mon 06:33:39 AM 33.6133 -88.0747 301° West 249 287 26,000  Level Memphis Center
Mon 06:34:39 AM 33.6500 -88.1486 301° West 249 287 26,000  Level Memphis Center
Mon 06:35:39 AM 33.6825 -88.2178 299° West 249 287 26,000  Level Memphis Center
Mon 06:36:39 AM 33.7192 -88.2919 301° West 249 287 26,000  Level Memphis Center
Mon 06:37:39 AM 33.7539 -88.3661 299° West 249 287 26,000  Level Memphis Center
Mon 06:38:39 AM 33.7906 -88.4375 302° West 249 287 26,000  Level Memphis Center
Mon 06:39:39 AM 33.8250 -88.5094 300° West 249 287 26,000  Level Memphis Center
Mon 06:40:40 AM 33.8594 -88.5861 298° West 249 287 26,000  Level Memphis Center
Mon 06:41:39 AM 33.8961 -88.6581 302° West 249 287 26,000  Level Memphis Center
Mon 06:42:39 AM 33.9283 -88.7300 298° West 249 287 26,000  Level Memphis Center
Mon 06:43:39 AM 33.9647 -88.8069 300° West 254 292 26,000  Level Memphis Center
Mon 06:44:39 AM 33.9969 -88.8764 299° West 254 292 26,000  Level Memphis Center
Mon 06:45:39 AM 34.0331 -88.9486 301° West 248 285 26,000  Level Memphis Center
Mon 06:46:39 AM 34.0694 -89.0231 301° West 248 285 26,000  Level Memphis Center
Mon 06:47:39 AM 34.1017 -89.0953 298° West 248 285 26,000  Level Memphis Center
Mon 06:48:39 AM 34.1378 -89.1778 298° West 248 285 26,000  Level Memphis Center
Mon 06:49:39 AM 34.1739 -89.2500 301° West 253 291 26,000  Level Memphis Center
Mon 06:50:39 AM 34.2100 -89.3225 301° West 248 285 26,000  Level Memphis Center
Mon 06:51:39 AM 34.2419 -89.3972 297° West 248 285 26,000  Level Memphis Center
Mon 06:52:39 AM 34.2758 -89.4697 300° West 248 285 26,000  Level Memphis Center
Mon 06:53:39 AM 34.3097 -89.5425 299° West 253 291 26,000  Level Memphis Center
Mon 06:54:39 AM 34.3436 -89.6150 300° West 253 291 26,000  Level Memphis Center
Mon 06:55:39 AM 34.3794 -89.6903 300° West 245 282 26,000  Level Memphis Center
Mon 06:56:39 AM 34.4069 -89.7556 297° West 245 282 26,000  Level Memphis Center
Mon 06:57:39 AM 34.4408 -89.8308 299° West 251 289 26,000  Level Memphis Center
Mon 06:58:39 AM 34.4703 -89.9061 295° West 251 289 26,000 50 Level Memphis Center
Mon 06:59:39 AM 34.5039 -89.9792 299° West 251 289 26,100  Climbing Memphis Center
Mon 07:00:39 AM 34.5397 -90.0544 300° West 251 289 26,000  Descending Memphis Center
Mon 07:01:39 AM 34.5794 -90.1325 302° West 251 289 26,100  Climbing Memphis Center
Mon 07:02:39 AM 34.6150 -90.2058 301° West 246 283 26,000 -50 Descending Memphis Center
Mon 07:03:39 AM 34.6506 -90.2789 301° West 246 283 26,000  Level Memphis Center
Mon 07:04:39 AM 34.6861 -90.3494 302° West 246 283 26,000 50 Level Memphis Center
Mon 07:05:39 AM 34.7172 -90.4228 297° West 246 283 26,100  Climbing Memphis Center
Mon 07:06:39 AM 34.7486 -90.4961 298° West 246 283 26,000  Descending Memphis Center
Mon 07:07:39 AM 34.7819 -90.5669 300° West 246 283 26,100 50 Climbing Memphis Center
Mon 07:08:39 AM 34.8108 -90.6328 298° West 246 283 26,100  Level Memphis Center
Mon 07:09:39 AM 34.8461 -90.7064 300° West 252 290 26,100 -50 Level Memphis Center
Mon 07:10:39 AM 34.8772 -90.7797 297° West 246 283 26,000 -50 Descending Memphis Center
Mon 07:11:39 AM 34.9106 -90.8508 300° West 246 283 26,000  Level Memphis Center
Mon 07:12:39 AM 34.9436 -90.9244 299° West 246 283 26,000  Level Memphis Center
Mon 07:13:39 AM 34.9744 -90.9983 297° West 252 290 26,000  Level Memphis Center
Mon 07:14:39 AM 35.0117 -91.0772 300° West 246 283 26,000 50 Level Memphis Center
Mon 07:15:39 AM 35.0444 -91.1508 299° West 246 283 26,100  Climbing Memphis Center
Mon 07:16:39 AM 35.0794 -91.2250 300° West 246 283 26,000 -50 Descending Memphis Center
Mon 07:17:39 AM 35.1103 -91.2989 297° West 246 283 26,000 50 Level Memphis Center
Mon 07:18:39 AM 35.1389 -91.3703 296° West 241 277 26,100  Climbing Memphis Center
Mon 07:19:39 AM 35.1717 -91.4417 299° West 241 277 26,000 -50 Descending Memphis Center
Mon 07:20:39 AM 35.2022 -91.5158 297° West 246 283 26,000  Level Memphis Center
Mon 07:21:39 AM 35.2350 -91.5850 300° West 246 283 26,000  Level Memphis Center
Mon 07:22:39 AM 35.2656 -91.6592 297° West 246 283 26,000 50 Level Memphis Center
Mon 07:23:39 AM 35.2961 -91.7308 298° West 246 283 26,100 -149 Climbing Memphis Center
Mon 07:24:40 AM 35.3267 -91.8050 297° West 241 277 25,700 -400 Descending Memphis Center
Mon 07:25:39 AM 35.3631 -91.8797 301° West 246 283 25,300 -454 Descending Memphis Center
Mon 07:26:39 AM 35.3978 -91.9542 300° West 246 283 24,800 -600 Descending Memphis Center
Mon 07:27:39 AM 35.4342 -92.0364 299° West 251 289 24,100 -800 Descending Memphis Center
Mon 07:28:39 AM 35.4686 -92.1186 297° West 263 303 23,200 -900 Descending Memphis Center
Mon 07:29:39 AM 35.5028 -92.2061 296° West 273 314 22,300 -1,100 Descending Memphis Center
Mon 07:30:39 AM 35.5411 -92.2936 298° West 279 321 21,000 -1,150 Descending Memphis Center
Mon 07:31:39 AM 35.5792 -92.3814 298° West 279 321 20,000 -1,000 Descending Memphis Center
Mon 07:32:39 AM 35.6175 -92.4717 298° West 284 327 19,000 -950 Descending Memphis Center
Mon 07:33:39 AM 35.6556 -92.5594 298° West 284 327 18,100 -850 Descending Memphis Center
Mon 07:34:39 AM 35.6936 -92.6447 299° West 289 333 17,300 -900 Descending Memphis Center
Mon 07:35:39 AM 35.7294 -92.7353 296° West 289 333 16,300 -1,250 Descending Memphis Center
Mon 07:36:39 AM 35.7653 -92.8258 296° West 289 333 14,800 -1,100 Descending Memphis Center
Mon 07:37:39 AM 35.7947 -92.9136 292° West 289 333 14,100 -800 Descending Memphis Center
Mon 07:38:39 AM 35.8219 -93.0017 291° West 283 326 13,200 -850 Descending Memphis Center
Mon 07:39:39 AM 35.8472 -93.0894 290° West 277 319 12,400 -750 Descending Memphis Center
Mon 07:40:39 AM 35.8703 -93.1775 288° West 271 312 11,700 -750 Descending Memphis Center
Mon 07:41:39 AM 35.8914 -93.2653 287° West 266 306 10,900 -1,000 Descending Memphis Center
Mon 07:42:39 AM 35.9142 -93.3531 288° West 266 306 9,700 -1,150 Descending Memphis Center
Mon 07:43:39 AM 35.9414 -93.4386 291° West 266 306 8,600 -1,150 Descending Memphis Center
Mon 07:44:39 AM 35.9683 -93.5244 291° West 266 306 7,400 -1,140 Descending Memphis Center
Mon 07:45:40 AM 35.9911 -93.6125 288° West 271 312 6,300 -700 Descending Memphis Center
Mon 07:46:39 AM 36.0119 -93.6928 288° West 265 305 6,000 -504 Descending Memphis Center
Mon 07:47:39 AM 36.0347 -93.7733 289° West 254 292 5,300 -900 Descending Memphis Center
Mon 07:48:39 AM 36.0556 -93.8539 288° West 249 287 4,200 -650 Descending Memphis Center
Mon 07:49:39 AM 36.0803 -93.9369 290° West 249 287 4,000 -100 Descending Memphis Center
Mon 07:50:39 AM 36.0969 -94.0044 287° West 237 273 4,000  Level Memphis Center
Mon 07:51:39 AM 36.1161 -94.0669 291° West 213 245 4,000 -298 Level Memphis Center
Mon 07:52:40 AM 36.1308 -94.1294 286° West 201 231 3,400 -300 Descending Memphis Center
Mon 07:53:39 AM 36.1461 -94.1764 292° West 172 198 3,400 -151 Level Memphis Center
Mon 07:54:39 AM 36.1831 -94.1911 342° North 133 153 3,100 -400 Descending Memphis Center
Mon 07:55:39 AM 36.2206 -94.1978 352° North 133 153 2,600 -500 Descending Memphis Center
Mon 07:57:00 AM 36.3143 -94.2140 North  Level Estimated
Mon 08:04:00 AM 36.3333 -94.2167 North  Level FlightAware Approximate
Mon 08:05:00 AM 36.3452 -94.2193 North  Level Estimated
Mon 08:06:00 AM 36.3452 -94.2193 North  Level Estimated

Login

Don't have an account? Register now (free) for customized features, flight alerts, and more!